sensor_id;sensor_type;location;lat;lon;timestamp;P1;durP1;ratioP1;P2;durP2;ratioP2
1436;SDS011;712;51.026;13.792;2023-01-05T00:01:47;2.50;;;0.25;;
1436;SDS011;712;51.026;13.792;2023-01-05T00:04:13;4.25;;;0.50;;
1436;SDS011;712;51.026;13.792;2023-01-05T00:06:38;2.92;;;0.50;;
1436;SDS011;712;51.026;13.792;2023-01-05T00:09:03;3.07;;;0.33;;
1436;SDS011;712;51.026;13.792;2023-01-05T00:11:29;1.67;;;0.38;;
1436;SDS011;712;51.026;13.792;2023-01-05T00:14:13;2.38;;;0.40;;
1436;SDS011;712;51.026;13.792;2023-01-05T00:16:58;3.17;;;0.50;;
1436;SDS011;712;51.026;13.792;2023-01-05T00:19:41;1.67;;;0.40;;
1436;SDS011;712;51.026;13.792;2023-01-05T00:22:26;2.78;;;0.50;;
1436;SDS011;712;51.026;13.792;2023-01-05T00:24:54;5.45;;;0.75;;
1436;SDS011;712;51.026;13.792;2023-01-05T00:27:19;2.70;;;0.57;;
1436;SDS011;712;51.026;13.792;2023-01-05T00:29:44;3.33;;;0.52;;
1436;SDS011;712;51.026;13.792;2023-01-05T00:32:09;4.22;;;0.60;;
1436;SDS011;712;51.026;13.792;2023-01-05T00:34:35;4.60;;;0.70;;
1436;SDS011;712;51.026;13.792;2023-01-05T00:37:00;2.45;;;0.57;;
1436;SDS011;712;51.026;13.792;2023-01-05T00:39:25;3.38;;;0.68;;
1436;SDS011;712;51.026;13.792;2023-01-05T00:41:50;2.45;;;0.60;;
1436;SDS011;712;51.026;13.792;2023-01-05T00:44:15;3.78;;;0.52;;
1436;SDS011;712;51.026;13.792;2023-01-05T00:46:40;3.42;;;0.52;;
1436;SDS011;712;51.026;13.792;2023-01-05T00:49:05;3.33;;;0.63;;
1436;SDS011;712;51.026;13.792;2023-01-05T00:51:30;2.70;;;0.50;;
1436;SDS011;712;51.026;13.792;2023-01-05T00:53:56;6.03;;;0.73;;
1436;SDS011;712;51.026;13.792;2023-01-05T00:56:21;4.30;;;0.50;;
1436;SDS011;712;51.026;13.792;2023-01-05T00:58:46;2.43;;;0.57;;
1436;SDS011;712;51.026;13.792;2023-01-05T01:01:11;2.67;;;0.50;;
1436;SDS011;712;51.026;13.792;2023-01-05T01:03:37;4.22;;;0.80;;
1436;SDS011;712;51.026;13.792;2023-01-05T01:06:02;3.40;;;0.43;;
1436;SDS011;712;51.026;13.792;2023-01-05T01:08:27;3.87;;;0.50;;
1436;SDS011;712;51.026;13.792;2023-01-05T01:10:52;3.60;;;0.50;;
1436;SDS011;712;51.026;13.792;2023-01-05T01:13:17;3.25;;;0.50;;
1436;SDS011;712;51.026;13.792;2023-01-05T01:15:43;2.67;;;0.40;;
1436;SDS011;712;51.026;13.792;2023-01-05T01:18:08;4.65;;;0.55;;
1436;SDS011;712;51.026;13.792;2023-01-05T01:20:33;2.10;;;0.40;;
1436;SDS011;712;51.026;13.792;2023-01-05T01:22:58;3.25;;;0.55;;
1436;SDS011;712;51.026;13.792;2023-01-05T01:25:27;4.05;;;0.68;;
1436;SDS011;712;51.026;13.792;2023-01-05T01:27:52;4.10;;;0.40;;
1436;SDS011;712;51.026;13.792;2023-01-05T01:30:17;4.63;;;0.57;;
1436;SDS011;712;51.026;13.792;2023-01-05T01:32:43;2.80;;;0.70;;
1436;SDS011;712;51.026;13.792;2023-01-05T01:35:08;3.35;;;0.40;;
1436;SDS011;712;51.026;13.792;2023-01-05T01:37:34;2.97;;;0.60;;
1436;SDS011;712;51.026;13.792;2023-01-05T01:39:59;4.55;;;0.70;;
1436;SDS011;712;51.026;13.792;2023-01-05T01:42:24;5.00;;;0.70;;
1436;SDS011;712;51.026;13.792;2023-01-05T01:44:51;3.97;;;0.77;;
1436;SDS011;712;51.026;13.792;2023-01-05T01:47:27;4.82;;;0.65;;
1436;SDS011;712;51.026;13.792;2023-01-05T01:49:55;3.95;;;0.70;;
1436;SDS011;712;51.026;13.792;2023-01-05T01:52:21;3.35;;;0.60;;
1436;SDS011;712;51.026;13.792;2023-01-05T01:54:47;4.13;;;0.60;;
1436;SDS011;712;51.026;13.792;2023-01-05T01:57:14;2.88;;;0.60;;
1436;SDS011;712;51.026;13.792;2023-01-05T01:59:39;3.85;;;0.68;;
1436;SDS011;712;51.026;13.792;2023-01-05T02:02:05;7.88;;;1.10;;
1436;SDS011;712;51.026;13.792;2023-01-05T02:04:30;4.28;;;0.60;;
1436;SDS011;712;51.026;13.792;2023-01-05T02:06:56;5.32;;;0.80;;
1436;SDS011;712;51.026;13.792;2023-01-05T02:09:21;3.97;;;1.00;;
1436;SDS011;712;51.026;13.792;2023-01-05T02:11:50;6.05;;;1.05;;
1436;SDS011;712;51.026;13.792;2023-01-05T02:14:34;7.28;;;0.90;;
1436;SDS011;712;51.026;13.792;2023-01-05T02:17:11;6.25;;;0.80;;
1436;SDS011;712;51.026;13.792;2023-01-05T02:22:25;6.95;;;0.88;;
1436;SDS011;712;51.026;13.792;2023-01-05T02:27:46;5.95;;;0.80;;
1436;SDS011;712;51.026;13.792;2023-01-05T02:35:39;4.57;;;0.80;;
1436;SDS011;712;51.026;13.792;2023-01-05T02:40:35;4.68;;;0.60;;
1436;SDS011;712;51.026;13.792;2023-01-05T02:43:02;6.20;;;0.88;;
1436;SDS011;712;51.026;13.792;2023-01-05T02:45:28;3.85;;;0.65;;
1436;SDS011;712;51.026;13.792;2023-01-05T02:47:53;5.97;;;0.90;;
1436;SDS011;712;51.026;13.792;2023-01-05T02:50:23;5.80;;;0.73;;
1436;SDS011;712;51.026;13.792;2023-01-05T02:52:55;5.25;;;0.80;;
1436;SDS011;712;51.026;13.792;2023-01-05T02:55:27;5.53;;;0.75;;
1436;SDS011;712;51.026;13.792;2023-01-05T02:58:04;5.18;;;1.05;;
1436;SDS011;712;51.026;13.792;2023-01-05T03:00:35;7.25;;;1.10;;
1436;SDS011;712;51.026;13.792;2023-01-05T03:03:05;6.50;;;0.88;;
1436;SDS011;712;51.026;13.792;2023-01-05T03:05:34;5.72;;;0.88;;
1436;SDS011;712;51.026;13.792;2023-01-05T03:08:00;5.63;;;1.00;;
1436;SDS011;712;51.026;13.792;2023-01-05T03:10:36;7.45;;;0.95;;
1436;SDS011;712;51.026;13.792;2023-01-05T03:13:20;3.42;;;0.70;;
1436;SDS011;712;51.026;13.792;2023-01-05T03:16:05;4.63;;;0.80;;
1436;SDS011;712;51.026;13.792;2023-01-05T03:18:32;4.88;;;0.80;;
1436;SDS011;712;51.026;13.792;2023-01-05T03:21:18;6.57;;;0.82;;
1436;SDS011;712;51.026;13.792;2023-01-05T03:23:44;7.88;;;0.90;;
1436;SDS011;712;51.026;13.792;2023-01-05T03:26:28;6.03;;;1.05;;
1436;SDS011;712;51.026;13.792;2023-01-05T03:31:58;8.13;;;1.10;;
1436;SDS011;712;51.026;13.792;2023-01-05T03:37:30;8.15;;;1.10;;
1436;SDS011;712;51.026;13.792;2023-01-05T03:39:56;8.55;;;1.17;;
1436;SDS011;712;51.026;13.792;2023-01-05T03:44:48;4.93;;;0.95;;
1436;SDS011;712;51.026;13.792;2023-01-05T03:47:14;4.67;;;0.77;;
1436;SDS011;712;51.026;13.792;2023-01-05T03:49:39;6.93;;;0.90;;
1436;SDS011;712;51.026;13.792;2023-01-05T03:52:04;10.25;;;1.27;;
1436;SDS011;712;51.026;13.792;2023-01-05T03:54:29;8.57;;;1.00;;
1436;SDS011;712;51.026;13.792;2023-01-05T03:56:54;8.23;;;0.90;;
1436;SDS011;712;51.026;13.792;2023-01-05T03:59:20;6.15;;;1.08;;
1436;SDS011;712;51.026;13.792;2023-01-05T04:01:45;6.35;;;1.00;;
1436;SDS011;712;51.026;13.792;2023-01-05T04:04:10;5.90;;;0.90;;
1436;SDS011;712;51.026;13.792;2023-01-05T04:06:36;7.27;;;0.93;;
1436;SDS011;712;51.026;13.792;2023-01-05T04:09:01;6.93;;;1.67;;
1436;SDS011;712;51.026;13.792;2023-01-05T04:11:26;7.35;;;0.98;;
1436;SDS011;712;51.026;13.792;2023-01-05T04:13:51;5.45;;;0.90;;
1436;SDS011;712;51.026;13.792;2023-01-05T04:16:16;8.52;;;1.10;;
1436;SDS011;712;51.026;13.792;2023-01-05T04:18:42;7.90;;;1.20;;
1436;SDS011;712;51.026;13.792;2023-01-05T04:21:07;6.80;;;1.00;;
1436;SDS011;712;51.026;13.792;2023-01-05T04:23:32;9.18;;;1.40;;
1436;SDS011;712;51.026;13.792;2023-01-05T04:25:58;7.20;;;0.93;;
1436;SDS011;712;51.026;13.792;2023-01-05T04:28:23;4.93;;;0.93;;
1436;SDS011;712;51.026;13.792;2023-01-05T04:30:49;8.00;;;1.05;;
1436;SDS011;712;51.026;13.792;2023-01-05T04:33:15;6.28;;;1.02;;
1436;SDS011;712;51.026;13.792;2023-01-05T04:35:40;10.37;;;1.40;;
1436;SDS011;712;51.026;13.792;2023-01-05T04:38:05;5.67;;;1.13;;
1436;SDS011;712;51.026;13.792;2023-01-05T04:40:30;13.05;;;1.25;;
1436;SDS011;712;51.026;13.792;2023-01-05T04:42:55;5.57;;;1.00;;
1436;SDS011;712;51.026;13.792;2023-01-05T04:45:21;6.47;;;1.07;;
1436;SDS011;712;51.026;13.792;2023-01-05T04:47:46;6.15;;;0.90;;
1436;SDS011;712;51.026;13.792;2023-01-05T04:50:11;6.20;;;0.93;;
1436;SDS011;712;51.026;13.792;2023-01-05T04:52:36;5.90;;;0.80;;
1436;SDS011;712;51.026;13.792;2023-01-05T04:55:02;6.63;;;1.00;;
1436;SDS011;712;51.026;13.792;2023-01-05T04:57:27;6.10;;;1.30;;
1436;SDS011;712;51.026;13.792;2023-01-05T04:59:52;9.68;;;1.33;;
1436;SDS011;712;51.026;13.792;2023-01-05T05:02:17;6.05;;;0.90;;
1436;SDS011;712;51.026;13.792;2023-01-05T05:04:42;6.45;;;0.98;;
1436;SDS011;712;51.026;13.792;2023-01-05T05:07:07;8.63;;;1.07;;
1436;SDS011;712;51.026;13.792;2023-01-05T05:09:32;7.78;;;1.00;;
1436;SDS011;712;51.026;13.792;2023-01-05T05:11:58;7.90;;;0.93;;
1436;SDS011;712;51.026;13.792;2023-01-05T05:14:23;5.57;;;1.00;;
1436;SDS011;712;51.026;13.792;2023-01-05T05:16:48;7.28;;;1.30;;
1436;SDS011;712;51.026;13.792;2023-01-05T05:19:13;5.67;;;1.00;;
1436;SDS011;712;51.026;13.792;2023-01-05T05:21:38;7.17;;;1.20;;
1436;SDS011;712;51.026;13.792;2023-01-05T05:24:03;7.32;;;1.10;;
1436;SDS011;712;51.026;13.792;2023-01-05T05:26:29;7.70;;;1.00;;
1436;SDS011;712;51.026;13.792;2023-01-05T05:28:54;9.38;;;1.50;;
1436;SDS011;712;51.026;13.792;2023-01-05T05:31:21;9.52;;;1.25;;
1436;SDS011;712;51.026;13.792;2023-01-05T05:33:46;7.97;;;1.20;;
1436;SDS011;712;51.026;13.792;2023-01-05T05:36:11;9.90;;;1.00;;
1436;SDS011;712;51.026;13.792;2023-01-05T05:38:36;9.50;;;1.30;;
1436;SDS011;712;51.026;13.792;2023-01-05T05:41:01;5.07;;;1.00;;
1436;SDS011;712;51.026;13.792;2023-01-05T05:43:26;6.80;;;1.08;;
1436;SDS011;712;51.026;13.792;2023-01-05T05:45:52;10.45;;;1.23;;
1436;SDS011;712;51.026;13.792;2023-01-05T05:48:17;8.90;;;1.30;;
1436;SDS011;712;51.026;13.792;2023-01-05T05:50:43;7.25;;;1.13;;
1436;SDS011;712;51.026;13.792;2023-01-05T05:53:08;5.30;;;1.20;;
1436;SDS011;712;51.026;13.792;2023-01-05T05:55:33;7.10;;;1.20;;
1436;SDS011;712;51.026;13.792;2023-01-05T05:57:58;5.60;;;0.97;;
1436;SDS011;712;51.026;13.792;2023-01-05T06:00:23;8.43;;;1.40;;
1436;SDS011;712;51.026;13.792;2023-01-05T06:02:48;7.03;;;1.33;;
1436;SDS011;712;51.026;13.792;2023-01-05T06:05:14;6.35;;;1.02;;
1436;SDS011;712;51.026;13.792;2023-01-05T06:07:39;5.87;;;1.20;;
1436;SDS011;712;51.026;13.792;2023-01-05T06:10:04;6.57;;;1.20;;
1436;SDS011;712;51.026;13.792;2023-01-05T06:12:29;6.93;;;1.48;;
1436;SDS011;712;51.026;13.792;2023-01-05T06:14:55;6.10;;;1.15;;
1436;SDS011;712;51.026;13.792;2023-01-05T06:17:20;6.82;;;1.10;;
1436;SDS011;712;51.026;13.792;2023-01-05T06:19:45;8.67;;;1.20;;
1436;SDS011;712;51.026;13.792;2023-01-05T06:22:10;8.32;;;1.15;;
1436;SDS011;712;51.026;13.792;2023-01-05T06:24:35;7.43;;;1.30;;
1436;SDS011;712;51.026;13.792;2023-01-05T06:27:00;7.90;;;1.20;;
1436;SDS011;712;51.026;13.792;2023-01-05T06:29:25;8.77;;;1.50;;
1436;SDS011;712;51.026;13.792;2023-01-05T06:31:51;7.28;;;1.30;;
1436;SDS011;712;51.026;13.792;2023-01-05T06:34:16;10.60;;;2.13;;
1436;SDS011;712;51.026;13.792;2023-01-05T06:36:41;9.98;;;1.40;;
1436;SDS011;712;51.026;13.792;2023-01-05T06:39:06;8.13;;;1.33;;
1436;SDS011;712;51.026;13.792;2023-01-05T06:41:31;6.88;;;1.30;;
1436;SDS011;712;51.026;13.792;2023-01-05T06:43:59;7.13;;;1.30;;
1436;SDS011;712;51.026;13.792;2023-01-05T06:46:24;5.78;;;1.15;;
1436;SDS011;712;51.026;13.792;2023-01-05T06:48:49;5.90;;;1.37;;
1436;SDS011;712;51.026;13.792;2023-01-05T06:51:15;7.15;;;1.27;;
1436;SDS011;712;51.026;13.792;2023-01-05T06:53:40;8.02;;;1.70;;
1436;SDS011;712;51.026;13.792;2023-01-05T06:56:05;6.67;;;1.00;;
1436;SDS011;712;51.026;13.792;2023-01-05T06:58:30;7.27;;;1.40;;
1436;SDS011;712;51.026;13.792;2023-01-05T07:00:55;9.73;;;1.30;;
1436;SDS011;712;51.026;13.792;2023-01-05T07:03:21;8.20;;;1.45;;
1436;SDS011;712;51.026;13.792;2023-01-05T07:05:48;4.20;;;0.90;;
1436;SDS011;712;51.026;13.792;2023-01-05T07:08:13;8.60;;;1.42;;
1436;SDS011;712;51.026;13.792;2023-01-05T07:10:38;8.00;;;1.20;;
1436;SDS011;712;51.026;13.792;2023-01-05T07:13:03;6.10;;;1.20;;
1436;SDS011;712;51.026;13.792;2023-01-05T07:15:28;12.10;;;1.30;;
1436;SDS011;712;51.026;13.792;2023-01-05T07:17:53;10.90;;;1.30;;
1436;SDS011;712;51.026;13.792;2023-01-05T07:20:19;7.85;;;1.30;;
1436;SDS011;712;51.026;13.792;2023-01-05T07:22:44;7.30;;;1.30;;
1436;SDS011;712;51.026;13.792;2023-01-05T07:25:09;7.07;;;1.20;;
1436;SDS011;712;51.026;13.792;2023-01-05T07:27:35;7.53;;;1.55;;
1436;SDS011;712;51.026;13.792;2023-01-05T07:30:00;7.65;;;1.20;;
1436;SDS011;712;51.026;13.792;2023-01-05T07:32:25;8.68;;;1.35;;
1436;SDS011;712;51.026;13.792;2023-01-05T07:34:50;7.95;;;1.13;;
1436;SDS011;712;51.026;13.792;2023-01-05T07:37:15;5.80;;;1.15;;
1436;SDS011;712;51.026;13.792;2023-01-05T07:39:41;7.32;;;1.20;;
1436;SDS011;712;51.026;13.792;2023-01-05T07:42:06;6.13;;;1.37;;
1436;SDS011;712;51.026;13.792;2023-01-05T07:44:31;10.90;;;1.63;;
1436;SDS011;712;51.026;13.792;2023-01-05T07:46:56;7.43;;;1.30;;
1436;SDS011;712;51.026;13.792;2023-01-05T07:49:22;9.93;;;1.48;;
1436;SDS011;712;51.026;13.792;2023-01-05T07:51:47;9.38;;;1.42;;
1436;SDS011;712;51.026;13.792;2023-01-05T07:54:13;8.43;;;1.10;;
1436;SDS011;712;51.026;13.792;2023-01-05T07:56:38;7.30;;;1.30;;
1436;SDS011;712;51.026;13.792;2023-01-05T07:59:03;7.53;;;1.27;;
1436;SDS011;712;51.026;13.792;2023-01-05T08:01:28;4.50;;;1.00;;
1436;SDS011;712;51.026;13.792;2023-01-05T08:03:53;4.73;;;1.03;;
1436;SDS011;712;51.026;13.792;2023-01-05T08:06:19;6.43;;;1.17;;
1436;SDS011;712;51.026;13.792;2023-01-05T08:08:44;7.68;;;1.30;;
1436;SDS011;712;51.026;13.792;2023-01-05T08:11:10;9.15;;;1.30;;
1436;SDS011;712;51.026;13.792;2023-01-05T08:13:36;8.35;;;1.38;;
1436;SDS011;712;51.026;13.792;2023-01-05T08:16:19;7.95;;;1.13;;
1436;SDS011;712;51.026;13.792;2023-01-05T08:18:45;6.77;;;1.20;;
1436;SDS011;712;51.026;13.792;2023-01-05T08:21:10;7.23;;;1.13;;
1436;SDS011;712;51.026;13.792;2023-01-05T08:23:35;9.57;;;1.57;;
1436;SDS011;712;51.026;13.792;2023-01-05T08:26:05;12.80;;;1.35;;
1436;SDS011;712;51.026;13.792;2023-01-05T08:28:30;6.55;;;1.20;;
1436;SDS011;712;51.026;13.792;2023-01-05T08:31:02;7.77;;;1.10;;
1436;SDS011;712;51.026;13.792;2023-01-05T08:33:27;6.68;;;1.20;;
1436;SDS011;712;51.026;13.792;2023-01-05T08:35:53;7.15;;;1.27;;
1436;SDS011;712;51.026;13.792;2023-01-05T08:38:19;6.60;;;1.50;;
1436;SDS011;712;51.026;13.792;2023-01-05T08:40:44;8.18;;;1.17;;
1436;SDS011;712;51.026;13.792;2023-01-05T08:43:09;5.45;;;1.05;;
1436;SDS011;712;51.026;13.792;2023-01-05T08:45:35;6.60;;;1.10;;
1436;SDS011;712;51.026;13.792;2023-01-05T08:48:00;7.53;;;1.67;;
1436;SDS011;712;51.026;13.792;2023-01-05T08:50:25;7.68;;;1.27;;
1436;SDS011;712;51.026;13.792;2023-01-05T08:52:50;7.47;;;1.23;;
1436;SDS011;712;51.026;13.792;2023-01-05T08:55:15;9.32;;;1.50;;
1436;SDS011;712;51.026;13.792;2023-01-05T08:57:41;6.27;;;1.43;;
1436;SDS011;712;51.026;13.792;2023-01-05T09:00:06;7.13;;;1.40;;
1436;SDS011;712;51.026;13.792;2023-01-05T09:02:31;7.75;;;1.33;;
1436;SDS011;712;51.026;13.792;2023-01-05T09:04:56;6.37;;;1.33;;
1436;SDS011;712;51.026;13.792;2023-01-05T09:07:21;6.32;;;1.30;;
1436;SDS011;712;51.026;13.792;2023-01-05T09:09:47;8.53;;;1.40;;
1436;SDS011;712;51.026;13.792;2023-01-05T09:12:12;7.32;;;1.35;;
1436;SDS011;712;51.026;13.792;2023-01-05T09:14:37;7.80;;;1.30;;
1436;SDS011;712;51.026;13.792;2023-01-05T09:17:02;7.25;;;1.38;;
1436;SDS011;712;51.026;13.792;2023-01-05T09:19:27;6.88;;;1.27;;
1436;SDS011;712;51.026;13.792;2023-01-05T09:21:53;8.40;;;1.45;;
1436;SDS011;712;51.026;13.792;2023-01-05T09:24:18;9.30;;;1.33;;
1436;SDS011;712;51.026;13.792;2023-01-05T09:26:43;9.50;;;1.60;;
1436;SDS011;712;51.026;13.792;2023-01-05T09:29:09;7.40;;;2.25;;
1436;SDS011;712;51.026;13.792;2023-01-05T09:31:34;9.00;;;1.45;;
1436;SDS011;712;51.026;13.792;2023-01-05T09:33:59;7.63;;;1.38;;
1436;SDS011;712;51.026;13.792;2023-01-05T09:36:24;8.20;;;1.37;;
1436;SDS011;712;51.026;13.792;2023-01-05T09:38:53;6.57;;;1.47;;
1436;SDS011;712;51.026;13.792;2023-01-05T09:41:24;8.02;;;1.30;;
1436;SDS011;712;51.026;13.792;2023-01-05T09:43:51;10.00;;;1.40;;
1436;SDS011;712;51.026;13.792;2023-01-05T09:48:43;7.47;;;1.10;;
1436;SDS011;712;51.026;13.792;2023-01-05T09:51:09;7.68;;;1.38;;
1436;SDS011;712;51.026;13.792;2023-01-05T09:53:34;10.93;;;1.47;;
1436;SDS011;712;51.026;13.792;2023-01-05T09:56:00;6.32;;;1.30;;
1436;SDS011;712;51.026;13.792;2023-01-05T09:58:26;5.50;;;1.10;;
1436;SDS011;712;51.026;13.792;2023-01-05T10:01:12;5.43;;;1.30;;
1436;SDS011;712;51.026;13.792;2023-01-05T10:03:42;10.32;;;1.33;;
1436;SDS011;712;51.026;13.792;2023-01-05T10:06:12;6.60;;;1.27;;
1436;SDS011;712;51.026;13.792;2023-01-05T10:08:39;7.95;;;1.48;;
1436;SDS011;712;51.026;13.792;2023-01-05T10:11:09;5.00;;;1.02;;
1436;SDS011;712;51.026;13.792;2023-01-05T10:13:58;5.18;;;1.23;;
1436;SDS011;712;51.026;13.792;2023-01-05T10:16:25;6.85;;;0.95;;
1436;SDS011;712;51.026;13.792;2023-01-05T10:18:52;6.55;;;1.20;;
1436;SDS011;712;51.026;13.792;2023-01-05T10:26:32;5.95;;;0.88;;
1436;SDS011;712;51.026;13.792;2023-01-05T10:29:01;5.38;;;1.13;;
1436;SDS011;712;51.026;13.792;2023-01-05T10:31:44;4.07;;;0.75;;
1436;SDS011;712;51.026;13.792;2023-01-05T10:42:01;6.35;;;0.80;;
1436;SDS011;712;51.026;13.792;2023-01-05T10:44:34;4.53;;;1.00;;
1436;SDS011;712;51.026;13.792;2023-01-05T10:47:06;3.45;;;0.80;;
1436;SDS011;712;51.026;13.792;2023-01-05T10:49:32;5.50;;;0.90;;
1436;SDS011;712;51.026;13.792;2023-01-05T10:51:58;5.28;;;0.82;;
1436;SDS011;712;51.026;13.792;2023-01-05T10:55:09;4.97;;;0.85;;
1436;SDS011;712;51.026;13.792;2023-01-05T10:59:56;5.85;;;0.93;;
1436;SDS011;712;51.026;13.792;2023-01-05T11:02:26;7.53;;;1.33;;
1436;SDS011;712;51.026;13.792;2023-01-05T11:04:52;4.50;;;1.30;;
1436;SDS011;712;51.026;13.792;2023-01-05T11:07:18;3.92;;;1.00;;
1436;SDS011;712;51.026;13.792;2023-01-05T11:09:43;6.73;;;1.10;;
1436;SDS011;712;51.026;13.792;2023-01-05T11:12:18;6.15;;;0.90;;
1436;SDS011;712;51.026;13.792;2023-01-05T11:14:46;3.53;;;0.90;;
1436;SDS011;712;51.026;13.792;2023-01-05T11:17:15;6.43;;;1.02;;
1436;SDS011;712;51.026;13.792;2023-01-05T11:19:43;6.40;;;1.08;;
1436;SDS011;712;51.026;13.792;2023-01-05T11:24:53;5.18;;;1.10;;
1436;SDS011;712;51.026;13.792;2023-01-05T11:29:43;5.60;;;1.30;;
1436;SDS011;712;51.026;13.792;2023-01-05T11:32:09;4.90;;;1.03;;
1436;SDS011;712;51.026;13.792;2023-01-05T11:37:26;5.93;;;1.38;;
1436;SDS011;712;51.026;13.792;2023-01-05T11:39:58;5.28;;;1.00;;
1436;SDS011;712;51.026;13.792;2023-01-05T11:44:50;6.70;;;1.13;;
1436;SDS011;712;51.026;13.792;2023-01-05T11:47:23;5.90;;;1.00;;
1436;SDS011;712;51.026;13.792;2023-01-05T11:49:56;3.78;;;1.10;;
1436;SDS011;712;51.026;13.792;2023-01-05T11:54:47;6.32;;;1.08;;
1436;SDS011;712;51.026;13.792;2023-01-05T11:57:16;4.00;;;1.00;;
1436;SDS011;712;51.026;13.792;2023-01-05T11:59:43;4.70;;;0.80;;
1436;SDS011;712;51.026;13.792;2023-01-05T12:02:20;5.10;;;0.90;;
1436;SDS011;712;51.026;13.792;2023-01-05T12:05:01;4.63;;;0.90;;
1436;SDS011;712;51.026;13.792;2023-01-05T12:07:31;4.53;;;0.90;;
1436;SDS011;712;51.026;13.792;2023-01-05T12:09:58;4.93;;;0.90;;
1436;SDS011;712;51.026;13.792;2023-01-05T12:17:44;4.50;;;1.00;;
1436;SDS011;712;51.026;13.792;2023-01-05T12:25:26;4.32;;;0.95;;
1436;SDS011;712;51.026;13.792;2023-01-05T12:28:00;4.13;;;1.10;;
1436;SDS011;712;51.026;13.792;2023-01-05T12:30:38;4.40;;;1.00;;
1436;SDS011;712;51.026;13.792;2023-01-05T12:33:10;5.47;;;0.80;;
1436;SDS011;712;51.026;13.792;2023-01-05T12:40:49;6.18;;;0.90;;
1436;SDS011;712;51.026;13.792;2023-01-05T12:46:06;3.45;;;0.60;;
1436;SDS011;712;51.026;13.792;2023-01-05T12:48:34;5.00;;;1.00;;
1436;SDS011;712;51.026;13.792;2023-01-05T12:51:17;3.67;;;0.80;;
1436;SDS011;712;51.026;13.792;2023-01-05T12:53:55;4.97;;;0.85;;
1436;SDS011;712;51.026;13.792;2023-01-05T12:56:27;4.15;;;0.88;;
1436;SDS011;712;51.026;13.792;2023-01-05T13:01:48;2.90;;;0.85;;
1436;SDS011;712;51.026;13.792;2023-01-05T13:04:21;4.25;;;0.95;;
1436;SDS011;712;51.026;13.792;2023-01-05T13:06:47;7.60;;;1.00;;
1436;SDS011;712;51.026;13.792;2023-01-05T13:09:17;5.40;;;0.85;;
1436;SDS011;712;51.026;13.792;2023-01-05T13:11:54;3.10;;;1.02;;
1436;SDS011;712;51.026;13.792;2023-01-05T13:14:23;5.63;;;1.13;;
1436;SDS011;712;51.026;13.792;2023-01-05T13:16:51;5.18;;;1.13;;
1436;SDS011;712;51.026;13.792;2023-01-05T13:19:30;5.93;;;1.10;;
1436;SDS011;712;51.026;13.792;2023-01-05T13:21:58;3.55;;;0.90;;
1436;SDS011;712;51.026;13.792;2023-01-05T13:24:29;5.88;;;1.05;;
1436;SDS011;712;51.026;13.792;2023-01-05T13:26:55;4.68;;;1.05;;
1436;SDS011;712;51.026;13.792;2023-01-05T13:29:25;6.53;;;1.15;;
1436;SDS011;712;51.026;13.792;2023-01-05T13:39:25;4.30;;;1.00;;
1436;SDS011;712;51.026;13.792;2023-01-05T13:42:00;5.80;;;1.20;;
1436;SDS011;712;51.026;13.792;2023-01-05T13:44:32;7.57;;;1.00;;
1436;SDS011;712;51.026;13.792;2023-01-05T13:47:17;5.72;;;1.08;;
1436;SDS011;712;51.026;13.792;2023-01-05T13:52:38;6.45;;;1.30;;
1436;SDS011;712;51.026;13.792;2023-01-05T13:55:13;6.97;;;0.80;;
1436;SDS011;712;51.026;13.792;2023-01-05T13:57:40;5.63;;;1.23;;
1436;SDS011;712;51.026;13.792;2023-01-05T14:00:07;5.07;;;0.98;;
1436;SDS011;712;51.026;13.792;2023-01-05T14:02:36;5.47;;;1.30;;
1436;SDS011;712;51.026;13.792;2023-01-05T14:05:13;6.72;;;1.40;;
1436;SDS011;712;51.026;13.792;2023-01-05T14:07:39;4.82;;;1.00;;
1436;SDS011;712;51.026;13.792;2023-01-05T14:10:04;6.00;;;0.98;;
1436;SDS011;712;51.026;13.792;2023-01-05T14:12:46;4.22;;;1.17;;
1436;SDS011;712;51.026;13.792;2023-01-05T14:15:32;6.18;;;1.10;;
1436;SDS011;712;51.026;13.792;2023-01-05T14:17:57;7.15;;;1.38;;
1436;SDS011;712;51.026;13.792;2023-01-05T14:22:54;8.43;;;1.50;;
1436;SDS011;712;51.026;13.792;2023-01-05T14:28:20;6.63;;;1.40;;
1436;SDS011;712;51.026;13.792;2023-01-05T14:30:46;7.82;;;1.40;;
1436;SDS011;712;51.026;13.792;2023-01-05T14:33:11;7.43;;;1.42;;
1436;SDS011;712;51.026;13.792;2023-01-05T14:35:36;7.38;;;1.30;;
1436;SDS011;712;51.026;13.792;2023-01-05T14:40:40;8.73;;;1.48;;
1436;SDS011;712;51.026;13.792;2023-01-05T14:43:27;9.30;;;1.63;;
1436;SDS011;712;51.026;13.792;2023-01-05T14:46:12;5.03;;;1.30;;
1436;SDS011;712;51.026;13.792;2023-01-05T14:48:39;4.40;;;1.40;;
1436;SDS011;712;51.026;13.792;2023-01-05T14:56:12;4.78;;;1.05;;
1436;SDS011;712;51.026;13.792;2023-01-05T15:03:47;4.78;;;1.00;;
1436;SDS011;712;51.026;13.792;2023-01-05T15:06:14;5.00;;;1.15;;
1436;SDS011;712;51.026;13.792;2023-01-05T15:13:58;4.63;;;1.10;;
1436;SDS011;712;51.026;13.792;2023-01-05T15:19:31;4.03;;;1.30;;
1436;SDS011;712;51.026;13.792;2023-01-05T15:31:59;4.03;;;1.00;;
1436;SDS011;712;51.026;13.792;2023-01-05T15:34:27;2.97;;;1.08;;
1436;SDS011;712;51.026;13.792;2023-01-05T15:36:55;2.95;;;0.82;;
1436;SDS011;712;51.026;13.792;2023-01-05T15:39:25;4.53;;;1.05;;
1436;SDS011;712;51.026;13.792;2023-01-05T15:41:51;2.67;;;0.80;;
1436;SDS011;712;51.026;13.792;2023-01-05T15:44:17;2.13;;;0.80;;
1436;SDS011;712;51.026;13.792;2023-01-05T15:46:43;2.95;;;0.80;;
1436;SDS011;712;51.026;13.792;2023-01-05T15:49:09;3.17;;;0.73;;
1436;SDS011;712;51.026;13.792;2023-01-05T15:51:41;3.10;;;1.10;;
1436;SDS011;712;51.026;13.792;2023-01-05T15:54:18;2.60;;;0.70;;
1436;SDS011;712;51.026;13.792;2023-01-05T15:56:43;1.55;;;0.55;;
1436;SDS011;712;51.026;13.792;2023-01-05T16:02:25;2.33;;;0.70;;
1436;SDS011;712;51.026;13.792;2023-01-05T16:05:06;2.33;;;0.60;;
1436;SDS011;712;51.026;13.792;2023-01-05T16:07:31;1.58;;;0.40;;
1436;SDS011;712;51.026;13.792;2023-01-05T16:09:57;2.83;;;0.67;;
1436;SDS011;712;51.026;13.792;2023-01-05T16:12:22;2.77;;;0.80;;
1436;SDS011;712;51.026;13.792;2023-01-05T16:14:55;3.20;;;0.70;;
1436;SDS011;712;51.026;13.792;2023-01-05T16:17:24;4.25;;;0.60;;
1436;SDS011;712;51.026;13.792;2023-01-05T16:19:52;1.90;;;0.60;;
1436;SDS011;712;51.026;13.792;2023-01-05T16:22:24;2.40;;;0.73;;
1436;SDS011;712;51.026;13.792;2023-01-05T16:24:56;2.70;;;0.60;;
1436;SDS011;712;51.026;13.792;2023-01-05T16:27:22;3.85;;;0.70;;
1436;SDS011;712;51.026;13.792;2023-01-05T16:29:47;3.60;;;0.80;;
1436;SDS011;712;51.026;13.792;2023-01-05T16:32:26;3.90;;;0.85;;
1436;SDS011;712;51.026;13.792;2023-01-05T16:35:18;1.80;;;0.60;;
1436;SDS011;712;51.026;13.792;2023-01-05T16:37:37;2.47;;;0.70;;
1436;SDS011;712;51.026;13.792;2023-01-05T16:40:02;3.75;;;0.50;;
1436;SDS011;712;51.026;13.792;2023-01-05T16:42:27;2.40;;;0.60;;
1436;SDS011;712;51.026;13.792;2023-01-05T16:45:23;3.03;;;0.70;;
1436;SDS011;712;51.026;13.792;2023-01-05T16:47:49;2.90;;;0.52;;
1436;SDS011;712;51.026;13.792;2023-01-05T16:52:41;2.22;;;0.60;;
1436;SDS011;712;51.026;13.792;2023-01-05T16:55:12;2.83;;;0.60;;
1436;SDS011;712;51.026;13.792;2023-01-05T16:57:39;2.33;;;0.60;;
1436;SDS011;712;51.026;13.792;2023-01-05T17:05:58;3.42;;;0.60;;
1436;SDS011;712;51.026;13.792;2023-01-05T17:08:25;1.90;;;0.60;;
1436;SDS011;712;51.026;13.792;2023-01-05T17:10:51;2.65;;;0.30;;
1436;SDS011;712;51.026;13.792;2023-01-05T17:15:44;2.27;;;0.60;;
1436;SDS011;712;51.026;13.792;2023-01-05T17:18:15;4.38;;;0.60;;
1436;SDS011;712;51.026;13.792;2023-01-05T17:20:41;2.90;;;0.60;;
1436;SDS011;712;51.026;13.792;2023-01-05T17:23:09;5.35;;;1.40;;
1436;SDS011;712;51.026;13.792;2023-01-05T17:25:36;3.10;;;0.65;;
1436;SDS011;712;51.026;13.792;2023-01-05T17:28:01;3.50;;;0.70;;
1436;SDS011;712;51.026;13.792;2023-01-05T17:30:26;3.20;;;0.70;;
1436;SDS011;712;51.026;13.792;2023-01-05T17:32:51;3.17;;;0.60;;
1436;SDS011;712;51.026;13.792;2023-01-05T17:35:16;3.00;;;0.70;;